sensor_id;sensor_type;location;lat;lon;timestamp;temperature;humidity
47521;DHT22;32291;52.010;4.446;2022-10-31T00:00:06;11.40;99.90
47521;DHT22;32291;52.010;4.446;2022-10-31T00:01:37;11.30;99.90
47521;DHT22;32291;52.010;4.446;2022-10-31T00:02:45;11.30;99.90
47521;DHT22;32291;52.010;4.446;2022-10-31T00:03:53;11.30;99.90
47521;DHT22;32291;52.010;4.446;2022-10-31T00:05:01;11.30;99.90
47521;DHT22;32291;52.010;4.446;2022-10-31T00:06:08;11.20;99.90
47521;DHT22;32291;52.010;4.446;2022-10-31T00:07:15;11.20;99.90
47521;DHT22;32291;52.010;4.446;2022-10-31T00:08:22;11.20;99.90
47521;DHT22;32291;52.010;4.446;2022-10-31T00:09:29;11.20;99.90
47521;DHT22;32291;52.010;4.446;2022-10-31T00:10:38;11.20;99.90
47521;DHT22;32291;52.010;4.446;2022-10-31T00:11:46;11.20;99.90
47521;DHT22;32291;52.010;4.446;2022-10-31T00:12:54;11.20;99.90
47521;DHT22;32291;52.010;4.446;2022-10-31T00:13:57;11.30;99.90
47521;DHT22;32291;52.010;4.446;2022-10-31T00:15:05;11.30;99.90
47521;DHT22;32291;52.010;4.446;2022-10-31T00:16:14;11.30;99.90
47521;DHT22;32291;52.010;4.446;2022-10-31T00:17:29;11.30;99.90
47521;DHT22;32291;52.010;4.446;2022-10-31T00:18:36;11.30;99.90
47521;DHT22;32291;52.010;4.446;2022-10-31T00:19:39;11.30;99.90
47521;DHT22;32291;52.010;4.446;2022-10-31T00:20:46;11.30;99.90
47521;DHT22;32291;52.010;4.446;2022-10-31T00:21:53;11.20;99.90
47521;DHT22;32291;52.010;4.446;2022-10-31T00:23:01;11.20;99.90
47521;DHT22;32291;52.010;4.446;2022-10-31T00:24:10;11.20;99.90
47521;DHT22;32291;52.010;4.446;2022-10-31T00:25:17;11.20;99.90
47521;DHT22;32291;52.010;4.446;2022-10-31T00:26:29;11.10;99.90
47521;DHT22;32291;52.010;4.446;2022-10-31T00:27:38;11.10;99.90
47521;DHT22;32291;52.010;4.446;2022-10-31T00:28:46;11.10;99.90
47521;DHT22;32291;52.010;4.446;2022-10-31T00:29:53;11.00;99.90
47521;DHT22;32291;52.010;4.446;2022-10-31T00:31:05;11.00;99.90
47521;DHT22;32291;52.010;4.446;2022-10-31T00:32:15;11.00;99.90
47521;DHT22;32291;52.010;4.446;2022-10-31T00:33:18;10.90;99.90
47521;DHT22;32291;52.010;4.446;2022-10-31T00:34:25;10.90;99.90
47521;DHT22;32291;52.010;4.446;2022-10-31T00:35:32;10.80;99.90
47521;DHT22;32291;52.010;4.446;2022-10-31T00:36:39;10.80;99.90
47521;DHT22;32291;52.010;4.446;2022-10-31T00:37:47;10.70;99.90
47521;DHT22;32291;52.010;4.446;2022-10-31T00:38:54;10.70;99.90
47521;DHT22;32291;52.010;4.446;2022-10-31T00:40:02;10.70;99.90
47521;DHT22;32291;52.010;4.446;2022-10-31T00:41:11;10.60;99.90
47521;DHT22;32291;52.010;4.446;2022-10-31T00:42:21;10.60;99.90
47521;DHT22;32291;52.010;4.446;2022-10-31T00:43:28;10.60;99.90
47521;DHT22;32291;52.010;4.446;2022-10-31T00:44:36;10.70;99.90
47521;DHT22;32291;52.010;4.446;2022-10-31T00:45:38;10.50;99.90
47521;DHT22;32291;52.010;4.446;2022-10-31T00:46:40;10.50;99.90
47521;DHT22;32291;52.010;4.446;2022-10-31T00:47:47;10.50;99.90
47521;DHT22;32291;52.010;4.446;2022-10-31T00:48:50;10.60;99.90
47521;DHT22;32291;52.010;4.446;2022-10-31T00:49:57;10.60;99.90
47521;DHT22;32291;52.010;4.446;2022-10-31T00:51:04;10.50;99.90
47521;DHT22;32291;52.010;4.446;2022-10-31T00:52:12;10.50;99.90
47521;DHT22;32291;52.010;4.446;2022-10-31T00:53:19;10.50;99.90
47521;DHT22;32291;52.010;4.446;2022-10-31T00:54:27;10.50;99.90
47521;DHT22;32291;52.010;4.446;2022-10-31T00:55:34;10.50;99.90
47521;DHT22;32291;52.010;4.446;2022-10-31T00:56:41;10.50;99.90
47521;DHT22;32291;52.010;4.446;2022-10-31T00:57:48;10.50;99.90
47521;DHT22;32291;52.010;4.446;2022-10-31T00:58:55;10.50;99.90
47521;DHT22;32291;52.010;4.446;2022-10-31T01:00:03;10.50;99.90
47521;DHT22;32291;52.010;4.446;2022-10-31T01:01:11;10.50;99.90
47521;DHT22;32291;52.010;4.446;2022-10-31T01:02:18;10.50;99.90
47521;DHT22;32291;52.010;4.446;2022-10-31T01:03:31;10.50;99.90
47521;DHT22;32291;52.010;4.446;2022-10-31T01:04:40;10.50;99.90
47521;DHT22;32291;52.010;4.446;2022-10-31T01:05:56;10.40;99.90
47521;DHT22;32291;52.010;4.446;2022-10-31T01:07:08;10.40;99.90
47521;DHT22;32291;52.010;4.446;2022-10-31T01:08:15;10.30;99.90
47521;DHT22;32291;52.010;4.446;2022-10-31T01:09:22;10.40;99.90
47521;DHT22;32291;52.010;4.446;2022-10-31T01:10:29;10.20;99.90
47521;DHT22;32291;52.010;4.446;2022-10-31T01:11:36;10.20;99.90
47521;DHT22;32291;52.010;4.446;2022-10-31T01:12:46;10.20;99.90
47521;DHT22;32291;52.010;4.446;2022-10-31T01:13:55;10.20;99.90
47521;DHT22;32291;52.010;4.446;2022-10-31T01:15:03;10.10;99.90
47521;DHT22;32291;52.010;4.446;2022-10-31T01:16:14;10.10;99.90
47521;DHT22;32291;52.010;4.446;2022-10-31T01:17:20;10.10;99.90
47521;DHT22;32291;52.010;4.446;2022-10-31T01:18:27;10.20;99.90
47521;DHT22;32291;52.010;4.446;2022-10-31T01:19:35;10.10;99.90
47521;DHT22;32291;52.010;4.446;2022-10-31T01:20:43;10.10;99.90
47521;DHT22;32291;52.010;4.446;2022-10-31T01:21:50;10.10;99.90
47521;DHT22;32291;52.010;4.446;2022-10-31T01:23:01;10.00;99.90
47521;DHT22;32291;52.010;4.446;2022-10-31T01:24:09;10.00;99.90
47521;DHT22;32291;52.010;4.446;2022-10-31T01:25:16;10.00;99.90
47521;DHT22;32291;52.010;4.446;2022-10-31T01:26:25;9.90;99.90
47521;DHT22;32291;52.010;4.446;2022-10-31T01:27:32;9.90;99.90
47521;DHT22;32291;52.010;4.446;2022-10-31T01:28:46;9.90;99.90
47521;DHT22;32291;52.010;4.446;2022-10-31T01:30:05;9.90;99.90
47521;DHT22;32291;52.010;4.446;2022-10-31T01:31:13;9.80;99.90
47521;DHT22;32291;52.010;4.446;2022-10-31T01:32:17;9.80;99.90
47521;DHT22;32291;52.010;4.446;2022-10-31T01:33:24;9.80;99.90
47521;DHT22;32291;52.010;4.446;2022-10-31T01:34:32;9.80;99.90
47521;DHT22;32291;52.010;4.446;2022-10-31T01:35:39;9.70;99.90
47521;DHT22;32291;52.010;4.446;2022-10-31T01:36:46;9.80;99.90
47521;DHT22;32291;52.010;4.446;2022-10-31T01:37:57;9.70;99.90
47521;DHT22;32291;52.010;4.446;2022-10-31T01:39:11;9.70;99.90
47521;DHT22;32291;52.010;4.446;2022-10-31T01:40:16;9.70;99.90
47521;DHT22;32291;52.010;4.446;2022-10-31T01:41:26;9.70;99.90
47521;DHT22;32291;52.010;4.446;2022-10-31T01:42:37;9.60;99.90
47521;DHT22;32291;52.010;4.446;2022-10-31T01:43:52;9.60;99.90
47521;DHT22;32291;52.010;4.446;2022-10-31T01:45:10;9.60;99.90
47521;DHT22;32291;52.010;4.446;2022-10-31T01:46:22;9.60;99.90
47521;DHT22;32291;52.010;4.446;2022-10-31T01:47:47;9.60;99.90
47521;DHT22;32291;52.010;4.446;2022-10-31T01:48:58;9.60;99.90
47521;DHT22;32291;52.010;4.446;2022-10-31T01:50:33;9.70;99.90
47521;DHT22;32291;52.010;4.446;2022-10-31T01:51:52;9.60;99.90
47521;DHT22;32291;52.010;4.446;2022-10-31T01:53:00;9.60;99.90
47521;DHT22;32291;52.010;4.446;2022-10-31T01:54:12;9.50;99.90
47521;DHT22;32291;52.010;4.446;2022-10-31T01:55:33;9.50;99.90
47521;DHT22;32291;52.010;4.446;2022-10-31T01:56:44;9.50;99.90
47521;DHT22;32291;52.010;4.446;2022-10-31T01:58:13;9.40;99.90
47521;DHT22;32291;52.010;4.446;2022-10-31T01:59:27;9.30;99.90
47521;DHT22;32291;52.010;4.446;2022-10-31T02:00:44;9.30;99.90
47521;DHT22;32291;52.010;4.446;2022-10-31T02:01:58;9.30;99.90
47521;DHT22;32291;52.010;4.446;2022-10-31T02:03:05;9.20;99.90
47521;DHT22;32291;52.010;4.446;2022-10-31T02:04:12;9.20;99.90
47521;DHT22;32291;52.010;4.446;2022-10-31T02:05:23;9.20;99.90
47521;DHT22;32291;52.010;4.446;2022-10-31T02:06:51;9.20;99.90
47521;DHT22;32291;52.010;4.446;2022-10-31T02:08:08;9.20;99.90
47521;DHT22;32291;52.010;4.446;2022-10-31T02:09:19;9.10;99.90
47521;DHT22;32291;52.010;4.446;2022-10-31T02:10:32;9.10;99.90
47521;DHT22;32291;52.010;4.446;2022-10-31T02:11:43;9.10;99.90
47521;DHT22;32291;52.010;4.446;2022-10-31T02:12:53;9.10;99.90
47521;DHT22;32291;52.010;4.446;2022-10-31T02:14:02;9.00;99.90
47521;DHT22;32291;52.010;4.446;2022-10-31T02:15:09;9.00;99.90
47521;DHT22;32291;52.010;4.446;2022-10-31T02:16:17;9.00;99.90
47521;DHT22;32291;52.010;4.446;2022-10-31T02:17:24;9.10;99.90
47521;DHT22;32291;52.010;4.446;2022-10-31T02:18:31;8.90;99.90
47521;DHT22;32291;52.010;4.446;2022-10-31T02:21:36;8.90;99.90
47521;DHT22;32291;52.010;4.446;2022-10-31T02:34:21;8.80;99.90
47521;DHT22;32291;52.010;4.446;2022-10-31T02:41:03;8.90;99.90
47521;DHT22;32291;52.010;4.446;2022-10-31T02:42:46;8.90;99.90
47521;DHT22;32291;52.010;4.446;2022-10-31T02:44:08;8.90;99.90
47521;DHT22;32291;52.010;4.446;2022-10-31T02:47:05;8.90;99.90
47521;DHT22;32291;52.010;4.446;2022-10-31T02:48:19;8.90;99.90
47521;DHT22;32291;52.010;4.446;2022-10-31T02:49:50;9.00;99.90
47521;DHT22;32291;52.010;4.446;2022-10-31T02:51:11;8.90;99.90
47521;DHT22;32291;52.010;4.446;2022-10-31T02:52:28;9.00;99.90
47521;DHT22;32291;52.010;4.446;2022-10-31T02:53:38;9.00;99.90
47521;DHT22;32291;52.010;4.446;2022-10-31T02:54:47;9.00;99.90
47521;DHT22;32291;52.010;4.446;2022-10-31T02:56:16;9.00;99.90
47521;DHT22;32291;52.010;4.446;2022-10-31T02:57:29;9.00;99.90
47521;DHT22;32291;52.010;4.446;2022-10-31T02:58:54;9.00;99.90
47521;DHT22;32291;52.010;4.446;2022-10-31T03:00:07;9.10;99.90
47521;DHT22;32291;52.010;4.446;2022-10-31T03:01:33;9.20;99.90
47521;DHT22;32291;52.010;4.446;2022-10-31T03:08:23;9.10;99.90
47521;DHT22;32291;52.010;4.446;2022-10-31T03:11:23;9.10;99.90
47521;DHT22;32291;52.010;4.446;2022-10-31T03:16:09;9.10;99.90
47521;DHT22;32291;52.010;4.446;2022-10-31T03:19:41;9.10;99.90
47521;DHT22;32291;52.010;4.446;2022-10-31T03:20:53;9.10;99.90
47521;DHT22;32291;52.010;4.446;2022-10-31T03:22:26;9.10;99.90
47521;DHT22;32291;52.010;4.446;2022-10-31T03:23:39;9.20;99.90
47521;DHT22;32291;52.010;4.446;2022-10-31T03:24:52;9.20;99.90
47521;DHT22;32291;52.010;4.446;2022-10-31T03:26:05;9.20;99.90
47521;DHT22;32291;52.010;4.446;2022-10-31T03:27:26;9.20;99.90
47521;DHT22;32291;52.010;4.446;2022-10-31T03:28:46;9.20;99.90
47521;DHT22;32291;52.010;4.446;2022-10-31T03:30:02;9.20;99.90
47521;DHT22;32291;52.010;4.446;2022-10-31T03:31:33;9.10;99.90
47521;DHT22;32291;52.010;4.446;2022-10-31T03:32:51;9.10;99.90
47521;DHT22;32291;52.010;4.446;2022-10-31T03:34:03;9.00;99.90
47521;DHT22;32291;52.010;4.446;2022-10-31T03:35:10;9.10;99.90
47521;DHT22;32291;52.010;4.446;2022-10-31T03:36:22;9.00;99.90
47521;DHT22;32291;52.010;4.446;2022-10-31T03:37:32;9.00;99.90
47521;DHT22;32291;52.010;4.446;2022-10-31T03:38:41;9.10;99.90
47521;DHT22;32291;52.010;4.446;2022-10-31T03:39:55;9.10;99.90
47521;DHT22;32291;52.010;4.446;2022-10-31T03:41:11;9.10;99.90
47521;DHT22;32291;52.010;4.446;2022-10-31T03:42:30;9.20;99.90
47521;DHT22;32291;52.010;4.446;2022-10-31T03:43:46;9.30;99.90
47521;DHT22;32291;52.010;4.446;2022-10-31T03:45:12;9.40;99.90
47521;DHT22;32291;52.010;4.446;2022-10-31T03:46:27;9.50;99.90
47521;DHT22;32291;52.010;4.446;2022-10-31T03:47:30;9.60;99.90
47521;DHT22;32291;52.010;4.446;2022-10-31T03:48:39;9.70;99.90
47521;DHT22;32291;52.010;4.446;2022-10-31T03:49:47;9.70;99.90
47521;DHT22;32291;52.010;4.446;2022-10-31T03:51:00;9.80;99.90
47521;DHT22;32291;52.010;4.446;2022-10-31T03:52:34;9.90;99.90
47521;DHT22;32291;52.010;4.446;2022-10-31T03:55:54;9.90;99.90
47521;DHT22;32291;52.010;4.446;2022-10-31T03:59:16;10.10;99.90
47521;DHT22;32291;52.010;4.446;2022-10-31T04:00:38;10.10;99.90
47521;DHT22;32291;52.010;4.446;2022-10-31T04:01:56;10.10;99.90
47521;DHT22;32291;52.010;4.446;2022-10-31T04:03:15;10.10;99.90
47521;DHT22;32291;52.010;4.446;2022-10-31T04:04:26;10.20;99.90
47521;DHT22;32291;52.010;4.446;2022-10-31T04:05:37;10.20;99.90
47521;DHT22;32291;52.010;4.446;2022-10-31T04:06:49;10.30;99.90
47521;DHT22;32291;52.010;4.446;2022-10-31T04:08:00;10.30;99.90
47521;DHT22;32291;52.010;4.446;2022-10-31T04:09:13;10.30;99.90
47521;DHT22;32291;52.010;4.446;2022-10-31T04:10:23;10.20;99.90
47521;DHT22;32291;52.010;4.446;2022-10-31T04:11:32;10.20;99.90
47521;DHT22;32291;52.010;4.446;2022-10-31T04:12:51;10.20;99.90
47521;DHT22;32291;52.010;4.446;2022-10-31T04:14:09;10.10;99.90
47521;DHT22;32291;52.010;4.446;2022-10-31T04:15:19;10.30;99.90
47521;DHT22;32291;52.010;4.446;2022-10-31T04:16:30;10.10;99.90
47521;DHT22;32291;52.010;4.446;2022-10-31T04:17:36;10.10;99.90
47521;DHT22;32291;52.010;4.446;2022-10-31T04:18:48;10.00;99.90
47521;DHT22;32291;52.010;4.446;2022-10-31T04:19:55;10.00;99.90
47521;DHT22;32291;52.010;4.446;2022-10-31T04:21:07;9.90;99.90
47521;DHT22;32291;52.010;4.446;2022-10-31T04:22:15;9.90;99.90
47521;DHT22;32291;52.010;4.446;2022-10-31T04:23:20;9.80;99.90
47521;DHT22;32291;52.010;4.446;2022-10-31T04:24:27;9.80;99.90
47521;DHT22;32291;52.010;4.446;2022-10-31T04:25:34;9.80;99.90
47521;DHT22;32291;52.010;4.446;2022-10-31T04:26:41;9.70;99.90
47521;DHT22;32291;52.010;4.446;2022-10-31T04:27:48;9.70;99.90
47521;DHT22;32291;52.010;4.446;2022-10-31T04:28:56;9.60;99.90
47521;DHT22;32291;52.010;4.446;2022-10-31T04:30:03;9.60;99.90
47521;DHT22;32291;52.010;4.446;2022-10-31T04:31:12;9.60;99.90
47521;DHT22;32291;52.010;4.446;2022-10-31T04:32:19;9.50;99.90
47521;DHT22;32291;52.010;4.446;2022-10-31T04:33:26;9.40;99.90
47521;DHT22;32291;52.010;4.446;2022-10-31T04:34:34;9.40;99.90
47521;DHT22;32291;52.010;4.446;2022-10-31T04:35:41;9.40;99.90
47521;DHT22;32291;52.010;4.446;2022-10-31T04:36:48;9.30;99.90
47521;DHT22;32291;52.010;4.446;2022-10-31T04:37:55;9.30;99.90
47521;DHT22;32291;52.010;4.446;2022-10-31T04:38:58;9.30;99.90
47521;DHT22;32291;52.010;4.446;2022-10-31T04:40:05;9.20;99.90
47521;DHT22;32291;52.010;4.446;2022-10-31T04:41:12;9.20;99.90
47521;DHT22;32291;52.010;4.446;2022-10-31T04:42:15;9.10;99.90
47521;DHT22;32291;52.010;4.446;2022-10-31T04:43:22;9.10;99.90
47521;DHT22;32291;52.010;4.446;2022-10-31T04:44:29;9.10;99.90
47521;DHT22;32291;52.010;4.446;2022-10-31T04:45:37;9.00;99.90
47521;DHT22;32291;52.010;4.446;2022-10-31T04:46:44;9.00;99.90
47521;DHT22;32291;52.010;4.446;2022-10-31T04:47:51;9.10;99.90
47521;DHT22;32291;52.010;4.446;2022-10-31T04:48:59;9.10;99.90
47521;DHT22;32291;52.010;4.446;2022-10-31T04:50:02;9.10;99.90
47521;DHT22;32291;52.010;4.446;2022-10-31T04:51:09;9.10;99.90
47521;DHT22;32291;52.010;4.446;2022-10-31T04:52:11;9.10;99.90
47521;DHT22;32291;52.010;4.446;2022-10-31T04:53:19;9.10;99.90
47521;DHT22;32291;52.010;4.446;2022-10-31T04:54:26;9.20;99.90
47521;DHT22;32291;52.010;4.446;2022-10-31T04:55:33;9.10;99.90
47521;DHT22;32291;52.010;4.446;2022-10-31T04:56:42;9.10;99.90
47521;DHT22;32291;52.010;4.446;2022-10-31T04:57:49;9.10;99.90
47521;DHT22;32291;52.010;4.446;2022-10-31T04:58:57;9.10;99.90
47521;DHT22;32291;52.010;4.446;2022-10-31T05:00:04;9.10;99.90
47521;DHT22;32291;52.010;4.446;2022-10-31T05:01:12;9.00;99.90
47521;DHT22;32291;52.010;4.446;2022-10-31T05:02:19;9.00;99.90
47521;DHT22;32291;52.010;4.446;2022-10-31T05:03:26;9.10;99.90
47521;DHT22;32291;52.010;4.446;2022-10-31T05:04:34;9.10;99.90
47521;DHT22;32291;52.010;4.446;2022-10-31T05:05:41;9.10;99.90
47521;DHT22;32291;52.010;4.446;2022-10-31T05:06:44;9.10;99.90
47521;DHT22;32291;52.010;4.446;2022-10-31T05:07:47;9.10;99.90
47521;DHT22;32291;52.010;4.446;2022-10-31T05:08:55;9.10;99.90
47521;DHT22;32291;52.010;4.446;2022-10-31T05:09:58;9.00;99.90
47521;DHT22;32291;52.010;4.446;2022-10-31T05:11:05;9.00;99.90
47521;DHT22;32291;52.010;4.446;2022-10-31T05:12:12;8.90;99.90
47521;DHT22;32291;52.010;4.446;2022-10-31T05:13:19;9.00;99.90
47521;DHT22;32291;52.010;4.446;2022-10-31T05:14:26;9.00;99.90
47521;DHT22;32291;52.010;4.446;2022-10-31T05:15:33;9.00;99.90
47521;DHT22;32291;52.010;4.446;2022-10-31T05:16:41;9.00;99.90
47521;DHT22;32291;52.010;4.446;2022-10-31T05:17:48;9.00;99.90
47521;DHT22;32291;52.010;4.446;2022-10-31T05:18:55;9.10;99.90
47521;DHT22;32291;52.010;4.446;2022-10-31T05:20:03;9.10;99.90
47521;DHT22;32291;52.010;4.446;2022-10-31T05:21:10;9.10;99.90
47521;DHT22;32291;52.010;4.446;2022-10-31T05:22:17;9.10;99.90
47521;DHT22;32291;52.010;4.446;2022-10-31T05:23:24;9.00;99.90
47521;DHT22;32291;52.010;4.446;2022-10-31T05:24:31;9.00;99.90
47521;DHT22;32291;52.010;4.446;2022-10-31T05:25:39;9.00;99.90
47521;DHT22;32291;52.010;4.446;2022-10-31T05:26:48;9.00;99.90
47521;DHT22;32291;52.010;4.446;2022-10-31T05:27:52;8.90;99.90
47521;DHT22;32291;52.010;4.446;2022-10-31T05:29:01;8.90;99.90
47521;DHT22;32291;52.010;4.446;2022-10-31T05:30:09;8.90;99.90
47521;DHT22;32291;52.010;4.446;2022-10-31T05:31:20;8.80;99.90
47521;DHT22;32291;52.010;4.446;2022-10-31T05:32:27;8.70;99.90
47521;DHT22;32291;52.010;4.446;2022-10-31T05:33:29;8.80;99.90
47521;DHT22;32291;52.010;4.446;2022-10-31T05:34:36;8.70;99.90
47521;DHT22;32291;52.010;4.446;2022-10-31T05:35:38;8.80;99.90
47521;DHT22;32291;52.010;4.446;2022-10-31T05:36:45;8.70;99.90
47521;DHT22;32291;52.010;4.446;2022-10-31T05:37:48;8.70;99.90
47521;DHT22;32291;52.010;4.446;2022-10-31T05:38:55;8.70;99.90
47521;DHT22;32291;52.010;4.446;2022-10-31T05:39:57;8.60;99.90
47521;DHT22;32291;52.010;4.446;2022-10-31T05:41:04;8.60;99.90
47521;DHT22;32291;52.010;4.446;2022-10-31T05:42:12;8.50;99.90
47521;DHT22;32291;52.010;4.446;2022-10-31T05:43:19;8.70;99.90
47521;DHT22;32291;52.010;4.446;2022-10-31T05:44:21;8.50;99.90
47521;DHT22;32291;52.010;4.446;2022-10-31T05:45:24;8.50;99.90
47521;DHT22;32291;52.010;4.446;2022-10-31T05:46:26;8.50;99.90
47521;DHT22;32291;52.010;4.446;2022-10-31T05:47:28;8.40;99.90
47521;DHT22;32291;52.010;4.446;2022-10-31T05:48:31;8.30;99.90
47521;DHT22;32291;52.010;4.446;2022-10-31T05:49:33;8.30;99.90
47521;DHT22;32291;52.010;4.446;2022-10-31T05:50:40;8.30;99.90
47521;DHT22;32291;52.010;4.446;2022-10-31T05:51:47;8.30;99.90
47521;DHT22;32291;52.010;4.446;2022-10-31T05:52:59;8.30;99.90
47521;DHT22;32291;52.010;4.446;2022-10-31T05:54:11;8.20;99.90
47521;DHT22;32291;52.010;4.446;2022-10-31T05:55:14;8.30;99.90
47521;DHT22;32291;52.010;4.446;2022-10-31T05:56:21;8.30;99.90
47521;DHT22;32291;52.010;4.446;2022-10-31T05:57:29;8.20;99.90
47521;DHT22;32291;52.010;4.446;2022-10-31T05:58:39;8.20;99.90
47521;DHT22;32291;52.010;4.446;2022-10-31T05:59:46;8.20;99.90
47521;DHT22;32291;52.010;4.446;2022-10-31T06:00:53;8.20;99.90
47521;DHT22;32291;52.010;4.446;2022-10-31T06:02:00;8.40;99.90
47521;DHT22;32291;52.010;4.446;2022-10-31T06:03:05;8.30;99.90
47521;DHT22;32291;52.010;4.446;2022-10-31T06:04:10;8.30;99.90
47521;DHT22;32291;52.010;4.446;2022-10-31T06:05:17;8.30;99.90
47521;DHT22;32291;52.010;4.446;2022-10-31T06:06:24;8.30;99.90
47521;DHT22;32291;52.010;4.446;2022-10-31T06:07:33;8.30;99.90
47521;DHT22;32291;52.010;4.446;2022-10-31T06:08:41;8.30;99.90
47521;DHT22;32291;52.010;4.446;2022-10-31T06:09:49;8.20;99.90
47521;DHT22;32291;52.010;4.446;2022-10-31T06:10:56;8.30;99.90
47521;DHT22;32291;52.010;4.446;2022-10-31T06:12:03;8.20;99.90
47521;DHT22;32291;52.010;4.446;2022-10-31T06:13:06;8.20;99.90
47521;DHT22;32291;52.010;4.446;2022-10-31T06:14:13;8.20;99.90
47521;DHT22;32291;52.010;4.446;2022-10-31T06:15:16;8.20;99.90
47521;DHT22;32291;52.010;4.446;2022-10-31T06:16:23;8.20;99.90
47521;DHT22;32291;52.010;4.446;2022-10-31T06:17:30;8.10;99.90
47521;DHT22;32291;52.010;4.446;2022-10-31T06:18:33;8.10;99.90
47521;DHT22;32291;52.010;4.446;2022-10-31T06:19:40;8.10;99.90
47521;DHT22;32291;52.010;4.446;2022-10-31T06:20:47;8.20;99.90
47521;DHT22;32291;52.010;4.446;2022-10-31T06:21:54;8.10;99.90
47521;DHT22;32291;52.010;4.446;2022-10-31T06:23:02;8.10;99.90
47521;DHT22;32291;52.010;4.446;2022-10-31T06:24:10;8.10;99.90
47521;DHT22;32291;52.010;4.446;2022-10-31T06:25:12;8.00;99.90
47521;DHT22;32291;52.010;4.446;2022-10-31T06:26:19;8.00;99.90
47521;DHT22;32291;52.010;4.446;2022-10-31T06:27:27;8.00;99.90
47521;DHT22;32291;52.010;4.446;2022-10-31T06:28:34;8.00;99.90
47521;DHT22;32291;52.010;4.446;2022-10-31T06:29:41;8.00;99.90
47521;DHT22;32291;52.010;4.446;2022-10-31T06:30:48;8.00;99.90
47521;DHT22;32291;52.010;4.446;2022-10-31T06:31:55;7.90;99.90
47521;DHT22;32291;52.010;4.446;2022-10-31T06:33:04;7.90;99.90
47521;DHT22;32291;52.010;4.446;2022-10-31T06:34:11;7.90;99.90
47521;DHT22;32291;52.010;4.446;2022-10-31T06:35:18;8.00;99.90
47521;DHT22;32291;52.010;4.446;2022-10-31T06:36:26;8.00;99.90
47521;DHT22;32291;52.010;4.446;2022-10-31T06:37:33;7.90;99.90
47521;DHT22;32291;52.010;4.446;2022-10-31T06:38:40;7.90;99.90
47521;DHT22;32291;52.010;4.446;2022-10-31T06:39:47;7.90;99.90
47521;DHT22;32291;52.010;4.446;2022-10-31T06:40:49;8.00;99.90
47521;DHT22;32291;52.010;4.446;2022-10-31T06:41:56;8.00;99.90
47521;DHT22;32291;52.010;4.446;2022-10-31T06:43:04;7.90;99.90
47521;DHT22;32291;52.010;4.446;2022-10-31T06:44:11;8.00;99.90
47521;DHT22;32291;52.010;4.446;2022-10-31T06:45:18;8.00;99.90
47521;DHT22;32291;52.010;4.446;2022-10-31T06:46:25;8.00;99.90
47521;DHT22;32291;52.010;4.446;2022-10-31T06:47:32;8.00;99.90
47521;DHT22;32291;52.010;4.446;2022-10-31T06:48:43;8.00;99.90
47521;DHT22;32291;52.010;4.446;2022-10-31T06:49:50;8.00;99.90
47521;DHT22;32291;52.010;4.446;2022-10-31T06:50:58;8.00;99.90
47521;DHT22;32291;52.010;4.446;2022-10-31T06:52:02;8.00;99.90
47521;DHT22;32291;52.010;4.446;2022-10-31T06:53:09;8.00;99.90
47521;DHT22;32291;52.010;4.446;2022-10-31T06:54:17;8.00;99.90
47521;DHT22;32291;52.010;4.446;2022-10-31T06:55:20;8.00;99.90
47521;DHT22;32291;52.010;4.446;2022-10-31T06:56:29;8.00;99.90
47521;DHT22;32291;52.010;4.446;2022-10-31T06:57:36;8.10;99.90
47521;DHT22;32291;52.010;4.446;2022-10-31T06:58:43;8.10;99.90
47521;DHT22;32291;52.010;4.446;2022-10-31T06:59:50;8.10;99.90
47521;DHT22;32291;52.010;4.446;2022-10-31T07:01:00;8.20;99.90
47521;DHT22;32291;52.010;4.446;2022-10-31T07:02:11;8.20;99.90
47521;DHT22;32291;52.010;4.446;2022-10-31T07:03:19;8.40;99.90
47521;DHT22;32291;52.010;4.446;2022-10-31T07:04:26;8.30;99.90
47521;DHT22;32291;52.010;4.446;2022-10-31T07:05:33;8.30;99.90
47521;DHT22;32291;52.010;4.446;2022-10-31T07:06:40;8.40;99.90
47521;DHT22;32291;52.010;4.446;2022-10-31T07:07:49;8.40;99.90
47521;DHT22;32291;52.010;4.446;2022-10-31T07:09:00;8.50;99.90
47521;DHT22;32291;52.010;4.446;2022-10-31T07:10:07;8.50;99.90
47521;DHT22;32291;52.010;4.446;2022-10-31T07:11:15;8.60;99.90
47521;DHT22;32291;52.010;4.446;2022-10-31T07:12:22;8.60;99.90
47521;DHT22;32291;52.010;4.446;2022-10-31T07:13:29;8.60;99.90
47521;DHT22;32291;52.010;4.446;2022-10-31T07:14:32;8.70;99.90
47521;DHT22;32291;52.010;4.446;2022-10-31T07:15:41;8.70;99.90
47521;DHT22;32291;52.010;4.446;2022-10-31T07:16:51;8.70;99.90
47521;DHT22;32291;52.010;4.446;2022-10-31T07:18:03;8.80;99.90
47521;DHT22;32291;52.010;4.446;2022-10-31T07:19:08;8.80;99.90
47521;DHT22;32291;52.010;4.446;2022-10-31T07:20:16;8.90;99.90
47521;DHT22;32291;52.010;4.446;2022-10-31T07:21:20;8.90;99.90
47521;DHT22;32291;52.010;4.446;2022-10-31T07:22:36;9.00;99.90
47521;DHT22;32291;52.010;4.446;2022-10-31T07:23:46;9.00;99.90
47521;DHT22;32291;52.010;4.446;2022-10-31T07:24:55;9.10;99.90
47521;DHT22;32291;52.010;4.446;2022-10-31T07:26:02;9.10;99.90
47521;DHT22;32291;52.010;4.446;2022-10-31T07:27:09;9.20;99.90
47521;DHT22;32291;52.010;4.446;2022-10-31T07:28:16;9.30;99.90
47521;DHT22;32291;52.010;4.446;2022-10-31T07:29:18;9.40;99.90
47521;DHT22;32291;52.010;4.446;2022-10-31T07:30:26;9.30;99.90
47521;DHT22;32291;52.010;4.446;2022-10-31T07:31:33;9.40;99.90
47521;DHT22;32291;52.010;4.446;2022-10-31T07:32:41;9.50;99.90
47521;DHT22;32291;52.010;4.446;2022-10-31T07:33:53;9.50;99.90
47521;DHT22;32291;52.010;4.446;2022-10-31T07:35:00;9.60;99.90
47521;DHT22;32291;52.010;4.446;2022-10-31T07:36:02;9.70;99.90
47521;DHT22;32291;52.010;4.446;2022-10-31T07:37:10;9.70;99.90
47521;DHT22;32291;52.010;4.446;2022-10-31T07:38:14;9.70;99.90
47521;DHT22;32291;52.010;4.446;2022-10-31T07:39:21;9.70;99.90
47521;DHT22;32291;52.010;4.446;2022-10-31T07:40:24;9.70;99.90
47521;DHT22;32291;52.010;4.446;2022-10-31T07:41:31;9.70;99.90
47521;DHT22;32291;52.010;4.446;2022-10-31T07:42:43;9.80;99.90
47521;DHT22;32291;52.010;4.446;2022-10-31T07:43:54;9.80;99.90
47521;DHT22;32291;52.010;4.446;2022-10-31T07:45:01;9.80;99.90
47521;DHT22;32291;52.010;4.446;2022-10-31T07:46:04;9.80;99.90
47521;DHT22;32291;52.010;4.446;2022-10-31T07:47:07;9.80;99.90
47521;DHT22;32291;52.010;4.446;2022-10-31T07:48:14;9.80;99.90
47521;DHT22;32291;52.010;4.446;2022-10-31T07:49:21;9.80;99.90
47521;DHT22;32291;52.010;4.446;2022-10-31T07:50:31;9.90;99.90
47521;DHT22;32291;52.010;4.446;2022-10-31T07:51:42;9.90;99.90
47521;DHT22;32291;52.010;4.446;2022-10-31T07:52:44;9.90;99.90
47521;DHT22;32291;52.010;4.446;2022-10-31T07:53:50;9.80;99.90
47521;DHT22;32291;52.010;4.446;2022-10-31T07:54:57;9.90;99.90
47521;DHT22;32291;52.010;4.446;2022-10-31T07:55:59;9.90;99.90
47521;DHT22;32291;52.010;4.446;2022-10-31T07:57:06;9.90;99.90
47521;DHT22;32291;52.010;4.446;2022-10-31T07:58:15;10.00;99.90
47521;DHT22;32291;52.010;4.446;2022-10-31T07:59:23;10.00;99.90
47521;DHT22;32291;52.010;4.446;2022-10-31T08:00:33;10.00;99.90